Time;durP1;ratioP1;P1;durP2;ratioP2;P2;SDS_P1;SDS_P2;PMS_P1;PMS_P2;Temp;Humidity;BMP_temperature;BMP_pressure;BME280_temperature;BME280_humidity;BME280_pressure;Samples;Min_cycle;Max_cycle;Signal;HPM_P1;HPM_P2
2023/05/16 00:01:01;;;;;;;1.40;1.40;;;;;;;15.22;100.00;96822.25;5026736;28;20050;-59
2023/05/16 00:03:29;;;;;;;1.30;1.30;;;;;;;15.30;100.00;96818.19;5025121;28;20437;-59
2023/05/16 00:05:56;;;;;;;1.35;1.35;;;;;;;15.36;100.00;96819.38;5026510;28;20107;-59
2023/05/16 00:08:23;;;;;;;1.30;1.30;;;;;;;15.09;100.00;96818.31;5026621;28;20686;-59
2023/05/16 00:10:50;;;;;;;1.20;1.20;;;;;;;15.16;100.00;96812.69;5025858;28;20053;-59
2023/05/16 00:13:21;;;;;;;1.40;1.40;;;;;;;15.18;100.00;96815.88;5026728;28;20081;-59
2023/05/16 00:15:47;;;;;;;1.38;1.38;;;;;;;14.90;100.00;96813.22;5026588;28;20053;-58
2023/05/16 00:18:15;;;;;;;1.38;1.38;;;;;;;14.45;100.00;96738.88;5026312;28;20085;-59
2023/05/16 00:20:42;;;;;;;1.30;1.30;;;;;;;15.01;100.00;96816.75;5026072;28;20137;-59
2023/05/16 00:23:08;;;;;;;1.20;1.20;;;;;;;14.90;100.00;96804.84;5026391;28;20049;-60
2023/05/16 00:25:36;;;;;;;1.40;1.40;;;;;;;14.70;100.00;96807.28;5024607;28;20127;-58
2023/05/16 00:28:02;;;;;;;1.15;1.15;;;;;;;14.54;100.00;96789.44;5026087;28;20041;-61
2023/05/16 00:30:29;;;;;;;1.20;1.20;;;;;;;14.65;100.00;96807.69;5024303;28;20092;-59
2023/05/16 00:32:56;;;;;;;1.27;1.27;;;;;;;14.73;100.00;96805.69;5025893;28;20073;-59
2023/05/16 00:35:23;;;;;;;1.10;1.10;;;;;;;14.29;100.00;96724.59;5025654;28;20046;-58
2023/05/16 00:37:50;;;;;;;1.23;1.23;;;;;;;14.95;100.00;96807.22;5026040;28;20532;-59
2023/05/16 00:40:17;;;;;;;1.20;1.20;;;;;;;14.98;100.00;96812.75;5025589;28;20050;-59
2023/05/16 00:42:43;;;;;;;1.30;1.30;;;;;;;15.06;100.00;96805.19;5025760;28;20086;-61
2023/05/16 00:45:10;;;;;;;1.30;1.30;;;;;;;14.70;98.81;96747.97;5024275;28;20103;-59
2023/05/16 00:47:37;;;;;;;1.40;1.40;;;;;;;15.10;98.61;96819.91;5025597;28;20111;-59
2023/05/16 00:50:04;;;;;;;1.30;1.30;;;;;;;14.88;97.80;96774.56;5025945;28;20049;-59
2023/05/16 00:52:32;;;;;;;1.20;1.20;;;;;;;15.18;98.48;96804.72;5024205;28;20467;-59
2023/05/16 00:54:59;;;;;;;1.30;1.30;;;;;;;15.23;98.08;96801.50;5024120;28;20057;-60
2023/05/16 00:57:26;;;;;;;1.30;1.30;;;;;;;15.20;97.79;96805.13;5025232;28;20053;-59
2023/05/16 00:59:53;;;;;;;1.30;1.30;;;;;;;15.27;97.45;96816.22;5024077;28;20050;-60
2023/05/16 01:02:20;;;;;;;1.20;1.20;;;;;;;15.21;97.63;96798.31;5024466;28;20057;-59
2023/05/16 01:04:47;;;;;;;1.30;1.30;;;;;;;15.18;97.81;96799.94;5025573;28;20055;-59
2023/05/16 01:07:14;;;;;;;1.23;1.23;;;;;;;14.98;99.25;96790.44;5023607;28;20517;-58
2023/05/16 01:09:41;;;;;;;1.30;1.30;;;;;;;14.97;99.67;96799.22;5025469;28;20056;-58
2023/05/16 01:12:15;;;;;;;1.40;1.40;;;;;;;15.10;99.25;96808.75;5025301;28;20053;-59
2023/05/16 01:15:09;;;;;;;1.30;1.30;;;;;;;15.04;99.56;96810.38;5023997;28;20180;-59
2023/05/16 01:17:58;;;;;;;1.23;1.23;;;;;;;15.07;99.85;96809.53;5025167;28;20049;-59
2023/05/16 01:20:54;;;;;;;1.40;1.40;;;;;;;15.02;100.00;96809.97;5024407;28;20061;-59
2023/05/16 01:23:33;;;;;;;1.35;1.35;;;;;;;15.04;100.00;96804.78;5025375;28;20053;-59
2023/05/16 01:26:15;;;;;;;1.30;1.30;;;;;;;15.05;100.00;96800.78;5023282;28;20547;-59
2023/05/16 01:28:45;;;;;;;1.20;1.20;;;;;;;15.01;100.00;96789.66;5025160;28;20060;-59
2023/05/16 01:31:11;;;;;;;1.23;1.23;;;;;;;15.07;100.00;96793.63;5024751;28;20127;-62
2023/05/16 01:33:38;;;;;;;1.20;1.20;;;;;;;14.92;98.16;96763.41;5025121;28;20081;-58
2023/05/16 01:36:25;;;;;;;1.20;1.20;;;;;;;15.12;99.15;96784.03;5024342;28;20058;-59
2023/05/16 01:39:10;;;;;;;1.23;1.23;;;;;;;15.07;100.00;96787.22;5025001;28;20053;-58
2023/05/16 01:41:40;;;;;;;1.20;1.20;;;;;;;15.08;100.00;96788.81;5025068;28;20054;-59
2023/05/16 01:44:16;;;;;;;1.50;1.50;;;;;;;15.10;100.00;96781.63;5023114;28;20503;-59
2023/05/16 01:46:46;;;;;;;1.40;1.40;;;;;;;15.06;100.00;96780.06;5023038;28;20049;-61
2023/05/16 01:49:24;;;;;;;1.30;1.30;;;;;;;15.10;99.97;96778.03;5024767;28;20143;-59
2023/05/16 01:51:55;;;;;;;1.30;1.30;;;;;;;15.13;99.76;96780.03;5024598;28;20137;-59
2023/05/16 01:54:25;;;;;;;1.30;1.30;;;;;;;15.08;99.90;96777.66;5024418;28;20212;-59
2023/05/16 01:56:54;;;;;;;1.27;1.27;;;;;;;15.06;100.00;96774.50;5022800;28;20053;-58
2023/05/16 01:59:23;;;;;;;1.10;1.10;;;;;;;14.93;99.81;96751.03;5024873;28;20061;-59
2023/05/16 02:01:53;;;;;;;1.23;1.23;;;;;;;14.89;100.00;96767.00;5022701;28;20045;-59
2023/05/16 02:04:19;;;;;;;1.30;1.30;;;;;;;14.91;100.00;96772.94;5023329;28;20080;-59
2023/05/16 02:06:47;;;;;;;1.20;1.20;;;;;;;14.83;100.00;96765.81;5023502;28;20068;-59
2023/05/16 02:09:13;;;;;;;1.15;1.15;;;;;;;14.82;100.00;96753.09;5023979;28;20050;-60
2023/05/16 02:11:40;;;;;;;1.20;1.20;;;;;;;14.89;100.00;96753.84;5022455;28;20135;-59
2023/05/16 02:14:06;;;;;;;1.40;1.40;;;;;;;14.56;100.00;96709.75;5024452;28;20061;-59
2023/05/16 02:16:33;;;;;;;1.30;1.30;;;;;;;14.75;100.00;96753.09;5023789;28;20135;-60
2023/05/16 02:19:00;;;;;;;1.30;1.30;;;;;;;14.78;100.00;96757.84;5024401;28;20045;-59
2023/05/16 02:21:27;;;;;;;1.23;1.23;;;;;;;14.89;99.58;96753.06;5024036;28;20057;-60
2023/05/16 02:23:53;;;;;;;1.25;1.25;;;;;;;14.94;99.22;96749.81;5022871;28;20045;-60
2023/05/16 02:26:20;;;;;;;1.15;1.15;;;;;;;14.82;99.73;96730.78;5024389;28;20103;-61
2023/05/16 02:28:48;;;;;;;1.30;1.30;;;;;;;14.36;100.00;96666.84;5023845;28;20578;-61
2023/05/16 02:31:44;;;;;;;1.38;1.38;;;;;;;14.84;100.00;96728.38;5024062;28;20579;-59
2023/05/16 02:34:11;;;;;;;1.20;1.20;;;;;;;14.37;100.00;96670.44;5023445;28;20335;-59
2023/05/16 02:36:37;;;;;;;1.30;1.30;;;;;;;14.69;100.00;96729.63;5024366;28;20115;-60
2023/05/16 02:39:04;;;;;;;1.20;1.20;;;;;;;14.59;100.00;96733.28;5024088;28;20103;-59
2023/05/16 02:41:32;;;;;;;1.30;1.30;;;;;;;14.54;100.00;96731.66;5024275;28;20054;-60
2023/05/16 02:43:58;;;;;;;1.30;1.30;;;;;;;14.44;100.00;96726.13;5023259;28;20479;-59
2023/05/16 02:46:29;;;;;;;1.17;1.17;;;;;;;14.37;100.00;96693.50;5022401;28;20156;-60
2023/05/16 02:48:56;;;;;;;1.17;1.17;;;;;;;14.12;100.00;96650.19;5021432;28;20429;-59
2023/05/16 02:51:25;;;;;;;1.10;1.10;;;;;;;14.32;100.00;96713.44;5022472;28;20057;-61
2023/05/16 02:53:52;;;;;;;1.20;1.20;;;;;;;14.35;100.00;96717.41;5021249;28;20248;-59
2023/05/16 02:56:20;;;;;;;1.20;1.20;;;;;;;14.41;100.00;96724.16;5022904;28;20049;-62
2023/05/16 02:58:48;;;;;;;1.02;1.02;;;;;;;14.05;100.00;96689.22;5021601;28;20057;-60
2023/05/16 03:01:16;;;;;;;1.10;1.10;;;;;;;14.30;100.00;96731.75;5023816;28;20422;-61
2023/05/16 03:03:43;;;;;;;1.00;1.00;;;;;;;14.30;100.00;96720.63;5023745;28;20050;-60
2023/05/16 03:06:10;;;;;;;1.20;1.20;;;;;;;14.08;100.00;96685.63;5023436;28;20432;-59
2023/05/16 03:08:36;;;;;;;1.10;1.10;;;;;;;14.31;100.00;96708.25;5022536;28;20061;-61
2023/05/16 03:11:03;;;;;;;1.10;1.10;;;;;;;14.44;100.00;96731.72;5024084;28;20103;-60
2023/05/16 03:13:30;;;;;;;1.10;1.10;;;;;;;14.16;100.00;96665.72;5023726;28;20049;-61
2023/05/16 03:15:56;;;;;;;1.23;1.23;;;;;;;13.98;100.00;96630.72;5023452;28;20080;-60
2023/05/16 03:18:23;;;;;;;1.20;1.20;;;;;;;14.53;100.00;96720.91;5022274;28;20061;-60
2023/05/16 03:20:51;;;;;;;1.20;1.20;;;;;;;14.54;100.00;96714.16;5023645;28;20113;-60
2023/05/16 03:23:21;;;;;;;1.20;1.20;;;;;;;14.57;100.00;96713.34;5022174;28;20725;-61
2023/05/16 03:25:48;;;;;;;1.10;1.10;;;;;;;14.49;100.00;96718.16;5023621;28;20053;-60
2023/05/16 03:28:16;;;;;;;1.15;1.15;;;;;;;14.35;100.00;96711.84;5023173;28;20133;-60
2023/05/16 03:30:43;;;;;;;1.20;1.20;;;;;;;14.50;100.00;96724.53;5023376;28;20128;-60
2023/05/16 03:33:10;;;;;;;1.20;1.20;;;;;;;14.50;100.00;96718.94;5023220;28;20050;-60
2023/05/16 03:35:37;;;;;;;1.10;1.10;;;;;;;14.43;100.00;96719.75;5023502;28;20626;-60
2023/05/16 03:38:04;;;;;;;1.23;1.23;;;;;;;14.44;100.00;96715.78;5023451;28;20100;-60
2023/05/16 03:40:30;;;;;;;1.20;1.20;;;;;;;14.56;100.00;96711.75;5023208;28;20049;-60
2023/05/16 03:42:57;;;;;;;1.20;1.20;;;;;;;14.68;100.00;96716.91;5023182;28;20540;-60
2023/05/16 03:45:23;;;;;;;1.40;1.40;;;;;;;14.74;100.00;96713.28;5025480;28;20540;-60
2023/05/16 03:47:50;;;;;;;1.20;1.20;;;;;;;14.95;98.87;96715.19;5026918;28;20061;-62
2023/05/16 03:50:17;;;;;;;1.20;1.20;;;;;;;15.05;97.98;96722.66;5026888;28;20056;-60
2023/05/16 03:52:44;;;;;;;1.20;1.20;;;;;;;15.14;97.29;96726.59;5026413;28;20492;-60
2023/05/16 03:55:13;;;;;;;1.27;1.27;;;;;;;15.14;96.13;96726.59;5026736;28;20512;-60
2023/05/16 03:57:41;;;;;;;1.30;1.30;;;;;;;15.18;96.30;96727.41;5026528;28;20050;-59
2023/05/16 04:00:11;;;;;;;1.30;1.30;;;;;;;15.10;96.53;96717.47;5026841;28;20107;-60
2023/05/16 04:02:41;;;;;;;1.40;1.40;;;;;;;15.28;97.01;96748.06;5026944;28;20070;-60
2023/05/16 04:05:09;;;;;;;1.40;1.40;;;;;;;15.30;96.11;96745.63;5026635;28;20052;-60
2023/05/16 04:07:36;;;;;;;1.40;1.40;;;;;;;15.27;96.39;96748.47;5026697;28;20061;-60
2023/05/16 04:10:05;;;;;;;1.23;1.23;;;;;;;15.35;95.31;96748.00;5025105;28;20064;-60
2023/05/16 04:12:31;;;;;;;1.27;1.27;;;;;;;15.34;96.38;96746.44;5025430;28;20076;-60
2023/05/16 04:14:58;;;;;;;1.48;1.48;;;;;;;15.51;96.12;96751.13;5025886;28;20049;-61
2023/05/16 04:17:25;;;;;;;1.40;1.40;;;;;;;15.62;95.88;96746.25;5024950;28;20482;-61
2023/05/16 04:19:51;;;;;;;1.33;1.33;;;;;;;15.72;95.45;96753.75;5024617;28;20045;-60
2023/05/16 04:22:20;;;;;;;1.60;1.60;;;;;;;15.49;94.42;96686.53;5026327;28;20057;-60
2023/05/16 04:24:47;;;;;;;1.60;1.60;;;;;;;15.91;92.21;96761.59;5024474;28;20058;-61
2023/05/16 04:27:14;;;;;;;1.40;1.40;;;;;;;15.93;92.32;96756.38;5025891;28;20064;-61
2023/05/16 04:29:41;;;;;;;1.50;1.50;;;;;;;16.03;92.11;96761.09;5025911;28;20521;-59
2023/05/16 04:32:08;;;;;;;1.42;1.42;;;;;;;16.17;91.76;96744.19;5026200;28;20057;-61
2023/05/16 04:34:36;;;;;;;1.38;1.38;;;;;;;16.28;91.58;96739.28;5024132;28;20045;-58
2023/05/16 04:37:07;;;;;;;1.50;1.50;;;;;;;16.38;90.92;96737.59;5025754;28;20475;-58
2023/05/16 04:39:35;;;;;;;1.50;1.50;;;;;;;16.51;90.98;96725.50;5025589;28;20141;-61
2023/05/16 04:42:03;;;;;;;1.60;1.60;;;;;;;16.84;89.05;96745.47;5025930;28;20053;-59
2023/05/16 04:44:30;;;;;;;1.50;1.50;;;;;;;17.00;88.48;96720.50;5024764;28;20063;-59
2023/05/16 04:46:57;;;;;;;1.70;1.70;;;;;;;17.15;86.55;96731.06;5024788;28;20057;-59
2023/05/16 04:49:24;;;;;;;1.77;1.77;;;;;;;17.21;85.56;96725.81;5023289;28;20129;-61
2023/05/16 04:51:51;;;;;;;1.58;1.58;;;;;;;17.20;85.24;96711.00;5023346;28;20053;-60
2023/05/16 04:54:17;;;;;;;1.65;1.65;;;;;;;17.36;84.38;96735.56;5040290;28;20064;-61
2023/05/16 04:56:44;;;;;;;1.60;1.60;;;;;;;17.37;84.11;96731.59;5024214;28;20064;-60
2023/05/16 04:59:10;;;;;;;1.60;1.60;;;;;;;17.35;84.34;96734.00;5024268;28;20456;-61
2023/05/16 05:01:38;;;;;;;1.45;1.45;;;;;;;17.35;83.73;96728.41;5023802;28;20050;-60
2023/05/16 05:04:05;;;;;;;1.80;1.80;;;;;;;17.34;83.62;96732.44;5024833;28;20438;-61
2023/05/16 05:06:32;;;;;;;1.40;1.40;;;;;;;17.30;84.16;96728.88;5024900;28;20053;-60
2023/05/16 05:08:58;;;;;;;1.80;1.80;;;;;;;17.28;83.78;96723.69;5025010;28;20042;-61
2023/05/16 05:11:26;;;;;;;1.70;1.70;;;;;;;17.44;83.46;96715.50;5025149;28;20056;-60
2023/05/16 05:13:52;;;;;;;1.77;1.77;;;;;;;17.18;84.43;96718.25;5025360;28;20136;-61
2023/05/16 05:16:19;;;;;;;1.70;1.70;;;;;;;17.22;85.25;96719.00;5039872;28;20045;-60
2023/05/16 05:18:46;;;;;;;1.45;1.45;;;;;;;17.32;84.03;96712.44;5025319;28;20045;-62
2023/05/16 05:21:13;;;;;;;1.75;1.75;;;;;;;17.59;83.23;96730.06;5025056;28;20053;-60
2023/05/16 05:23:40;;;;;;;1.60;1.60;;;;;;;17.70;82.77;96716.69;5024988;28;20077;-61
2023/05/16 05:26:07;;;;;;;1.90;1.90;;;;;;;17.92;81.39;96717.94;5023953;28;20107;-60
2023/05/16 05:28:33;;;;;;;1.77;1.77;;;;;;;18.29;80.23;96720.47;5025108;28;20088;-60
2023/05/16 05:31:00;;;;;;;1.90;1.90;;;;;;;18.38;77.96;96706.72;5039459;28;20089;-60
2023/05/16 05:33:29;;;;;;;1.80;1.80;;;;;;;18.37;77.31;96671.44;5025005;28;20053;-61
2023/05/16 05:35:56;;;;;;;1.80;1.80;;;;;;;18.83;76.92;96721.84;5023040;28;20107;-60
2023/05/16 05:38:23;;;;;;;2.05;2.05;;;;;;;18.67;75.96;96629.16;5024722;28;20144;-61
2023/05/16 05:40:50;;;;;;;1.80;1.80;;;;;;;19.51;75.67;96722.78;5023864;28;20141;-60
2023/05/16 05:43:16;;;;;;;2.05;2.05;;;;;;;19.80;74.20;96731.34;5022786;28;20127;-61
2023/05/16 05:45:43;;;;;;;1.73;1.73;;;;;;;19.47;72.70;96660.25;5016719;28;20306;-59
2023/05/16 05:48:11;;;;;;;2.30;2.30;;;;;;;19.83;73.31;96716.41;5023412;28;20049;-59
2023/05/16 05:50:38;;;;;;;2.10;2.10;;;;;;;19.79;73.37;96726.16;5008161;28;20615;-59
2023/05/16 05:53:05;;;;;;;1.95;1.95;;;;;;;19.79;72.21;96709.28;5021536;28;20092;-61
2023/05/16 05:55:31;;;;;;;1.80;1.80;;;;;;;18.36;78.44;96731.56;5022689;28;20411;-59
2023/05/16 05:57:58;;;;;;;1.60;1.60;;;;;;;17.61;80.51;96650.00;5024437;28;20127;-62
2023/05/16 06:00:25;;;;;;;1.60;1.60;;;;;;;18.31;80.14;96712.41;5022732;28;20041;-59
2023/05/16 06:02:51;;;;;;;1.67;1.67;;;;;;;18.88;78.28;96731.78;5023397;28;20121;-64
2023/05/16 06:05:19;;;;;;;1.60;1.60;;;;;;;19.01;77.42;96727.91;5021354;28;20045;-60
2023/05/16 06:07:45;;;;;;;1.70;1.70;;;;;;;18.19;81.88;96721.47;5023468;28;20053;-59
2023/05/16 06:10:12;;;;;;;1.70;1.70;;;;;;;16.03;80.42;96397.88;5023008;28;20103;-65
2023/05/16 06:12:38;;;;;;;1.70;1.70;;;;;;;17.31;82.49;96638.09;5022295;28;20045;-67
2023/05/16 06:15:06;;;;;;;1.70;1.70;;;;;;;16.80;81.63;96501.38;5020733;28;20081;-61
2023/05/16 06:17:32;;;;;;;1.95;1.95;;;;;;;18.95;77.80;96729.59;5020365;28;20516;-58
2023/05/16 06:19:59;;;;;;;2.00;2.00;;;;;;;18.68;76.79;96667.25;5037784;28;20140;-61
2023/05/16 06:22:26;;;;;;;1.80;1.80;;;;;;;17.99;79.01;96633.72;5022853;28;20053;-61
2023/05/16 06:24:52;;;;;;;1.90;1.90;;;;;;;18.70;78.53;96728.53;5021069;28;20084;-65
2023/05/16 06:27:19;;;;;;;1.73;1.73;;;;;;;18.99;77.57;96662.97;5022567;28;20087;-68
2023/05/16 06:29:46;;;;;;;1.90;1.90;;;;;;;19.81;75.44;96734.94;5023645;28;20081;-57
2023/05/16 06:32:12;;;;;;;1.92;1.92;;;;;;;19.60;75.92;96718.59;5021516;28;20127;-59
2023/05/16 06:34:39;;;;;;;1.75;1.75;;;;;;;19.02;77.05;96650.84;5023717;28;20131;-59
2023/05/16 06:37:05;;;;;;;1.90;1.90;;;;;;;19.08;75.03;96632.25;5019462;28;20061;-69
2023/05/16 06:39:32;;;;;;;1.90;1.90;;;;;;;19.98;73.48;96697.16;5023109;28;20053;-58
2023/05/16 06:41:59;;;;;;;1.80;1.80;;;;;;;19.94;75.02;96707.69;5021474;28;20586;-71
2023/05/16 06:44:26;;;;;;;2.00;2.00;;;;;;;19.96;73.40;96688.38;5022914;28;20053;-58
2023/05/16 06:46:53;;;;;;;1.95;1.95;;;;;;;20.49;72.41;96704.66;5038784;28;20186;-72
2023/05/16 06:49:20;;;;;;;2.00;2.00;;;;;;;20.88;71.81;96702.34;5023547;28;20057;-69
2023/05/16 06:51:46;;;;;;;2.00;2.00;;;;;;;20.80;70.09;96644.66;5020787;28;20136;-58
2023/05/16 06:54:13;;;;;;;2.00;2.00;;;;;;;19.99;71.35;96560.97;5022595;28;20052;-58
2023/05/16 06:56:40;;;;;;;2.30;2.30;;;;;;;20.73;70.59;96700.38;5021968;28;20045;-57
2023/05/16 06:59:07;;;;;;;2.00;2.00;;;;;;;18.27;72.77;96380.84;5022485;28;20374;-65
2023/05/16 07:01:34;;;;;;;2.00;2.00;;;;;;;19.20;74.89;96605.53;5023655;28;20052;-64
2023/05/16 07:04:01;;;;;;;2.00;2.00;;;;;;;19.65;75.51;96656.25;5021128;28;20116;-55
2023/05/16 07:06:28;;;;;;;1.90;1.90;;;;;;;18.92;76.64;96561.28;5023302;28;20049;-69
2023/05/16 07:08:54;;;;;;;2.00;2.00;;;;;;;20.47;73.59;96681.84;5022161;28;20041;-72
2023/05/16 07:11:21;;;;;;;1.92;1.92;;;;;;;20.59;71.74;96616.34;5023292;28;20733;-72
2023/05/16 07:13:48;;;;;;;1.98;1.98;;;;;;;21.42;68.53;96679.81;5021311;28;20053;-59
2023/05/16 07:16:15;;;;;;;2.10;2.10;;;;;;;21.51;68.96;96617.94;5022814;28;20064;-63
2023/05/16 07:18:42;;;;;;;2.13;2.13;;;;;;;21.56;69.25;96651.19;5020729;28;20144;-69
2023/05/16 07:21:08;;;;;;;2.70;2.60;;;;;;;21.88;67.70;96605.81;5026520;28;20315;-70
2023/05/16 07:23:35;;;;;;;2.13;2.13;;;;;;;21.85;68.25;96680.06;5025572;28;20745;-61
2023/05/16 07:26:02;;;;;;;2.10;2.10;;;;;;;21.02;72.90;96667.38;5026962;28;20663;-70
2023/05/16 07:28:29;;;;;;;2.55;2.45;;;;;;;20.75;75.03;96664.13;5026702;28;20053;-75
2023/05/16 07:30:57;;;;;;;2.00;2.00;;;;;;;19.63;77.98;96610.94;5026961;28;20072;-60
2023/05/16 07:33:24;;;;;;;2.08;2.08;;;;;;;19.82;74.82;96590.34;5027118;28;20049;-61
2023/05/16 07:35:51;;;;;;;1.73;1.73;;;;;;;20.22;76.69;96690.13;5026964;28;20454;-61
2023/05/16 07:38:33;;;;;;;2.03;2.03;;;;;;;20.85;72.40;96674.28;5024801;28;20080;-60
2023/05/16 07:41:00;;;;;;;2.00;2.00;;;;;;;21.26;70.85;96682.72;5024103;28;20049;-59
2023/05/16 07:43:27;;;;;;;2.00;2.00;;;;;;;20.92;70.42;96676.91;5022916;28;20057;-66
2023/05/16 07:45:55;;;;;;;2.10;2.10;;;;;;;21.02;70.12;96667.38;5020079;28;20578;-60
2023/05/16 07:48:21;;;;;;;2.03;2.03;;;;;;;19.83;73.42;96541.31;5024442;28;20053;-60
2023/05/16 07:50:48;;;;;;;2.10;2.10;;;;;;;20.35;73.36;96657.22;5025170;28;20522;-63
2023/05/16 07:53:15;;;;;;;2.20;2.20;;;;;;;20.77;72.94;96670.88;5024988;28;20057;-64
2023/05/16 07:55:42;;;;;;;1.98;1.98;;;;;;;21.23;70.55;96671.59;5018439;28;20065;-62
2023/05/16 07:58:08;;;;;;;2.15;2.15;;;;;;;21.09;71.14;96655.13;5025242;28;20056;-59
2023/05/16 08:00:35;;;;;;;2.20;2.20;;;;;;;21.40;71.85;96662.59;5025372;28;20077;-57
2023/05/16 08:03:02;;;;;;;2.40;2.30;;;;;;;21.77;68.50;96611.03;5024478;28;20071;-61
2023/05/16 08:05:29;;;;;;;2.15;2.15;;;;;;;22.03;69.19;96646.44;5006423;28;20402;-65
2023/05/16 08:07:57;;;;;;;2.10;2.10;;;;;;;21.44;69.42;96587.16;5006080;28;20057;-74
2023/05/16 08:10:24;;;;;;;2.22;2.22;;;;;;;21.70;67.61;96576.63;5019475;28;20061;-69
2023/05/16 08:12:52;;;;;;;2.08;2.08;;;;;;;22.41;65.18;96655.53;5025553;28;20505;-65
2023/05/16 08:15:20;;;;;;;2.60;2.50;;;;;;;22.53;62.92;96579.75;5019859;28;20057;-68
2023/05/16 08:17:47;;;;;;;2.47;2.38;;;;;;;22.94;62.61;96655.66;5022395;28;20076;-60
2023/05/16 08:20:14;;;;;;;2.58;2.47;;;;;;;22.56;62.62;96599.38;5017932;28;20053;-62
2023/05/16 08:22:41;;;;;;;2.80;2.70;;;;;;;22.64;63.24;96642.25;5025814;28;20471;-70
2023/05/16 08:25:07;;;;;;;2.50;2.40;;;;;;;21.89;65.91;96646.88;5023772;28;20057;-63
2023/05/16 08:27:34;;;;;;;2.58;2.47;;;;;;;21.76;65.71;96626.41;5025557;28;20139;-60
2023/05/16 08:30:01;;;;;;;2.30;2.30;;;;;;;21.69;63.29;96558.91;5025930;28;20050;-69
2023/05/16 08:32:28;;;;;;;2.80;2.70;;;;;;;22.70;62.50;96637.63;5025463;28;20504;-66
2023/05/16 08:34:55;;;;;;;2.90;2.80;;;;;;;23.18;59.56;96634.94;5026066;28;20068;-72
2023/05/16 08:37:21;;;;;;;2.42;2.35;;;;;;;22.68;59.13;96606.22;5025933;28;20049;-70
2023/05/16 08:39:48;;;;;;;2.50;2.40;;;;;;;23.13;57.67;96598.00;5024700;28;20064;-64
2023/05/16 08:42:15;;;;;;;2.67;2.58;;;;;;;23.56;55.20;96584.56;5026019;28;20049;-62
2023/05/16 08:44:42;;;;;;;3.15;3.05;;;;;;;24.54;53.58;96644.63;5025792;28;20144;-71
2023/05/16 08:47:17;;;;;;;2.72;2.63;;;;;;;24.11;51.85;96633.59;5025945;28;20045;-72
2023/05/16 08:49:47;;;;;;;2.80;2.70;;;;;;;23.57;52.04;96627.75;5025751;28;20055;-70
2023/05/16 08:52:18;;;;;;;2.70;2.60;;;;;;;23.37;54.80;96590.59;5025023;28;20045;-63
2023/05/16 08:54:45;;;;;;;2.95;2.85;;;;;;;24.29;52.03;96613.00;5025475;28;20527;-71
2023/05/16 08:57:21;;;;;;;2.97;2.88;;;;;;;24.64;50.11;96600.09;5025367;28;20119;-72
2023/05/16 08:59:48;;;;;;;3.25;3.15;;;;;;;23.72;49.86;96611.78;5025507;28;20057;-70
2023/05/16 09:02:15;;;;;;;2.90;2.80;;;;;;;23.36;51.75;96521.97;5025240;28;20057;-72
2023/05/16 09:04:43;;;;;;;2.80;2.70;;;;;;;24.48;47.83;96564.41;5025099;28;20520;-74
2023/05/16 09:07:10;;;;;;;2.92;2.83;;;;;;;24.12;46.70;96606.88;5024908;28;20274;-63
2023/05/16 09:09:36;;;;;;;2.72;2.63;;;;;;;23.57;47.98;96525.94;5023655;28;20428;-64
2023/05/16 09:12:03;;;;;;;2.85;2.75;;;;;;;24.59;46.58;96629.84;5025139;28;20053;-62
2023/05/16 09:14:30;;;;;;;3.50;3.40;;;;;;;24.02;46.14;96525.25;5024663;28;20068;-68
2023/05/16 09:17:08;;;;;;;2.95;2.85;;;;;;;24.13;47.39;96614.09;5025016;28;20046;-69
2023/05/16 09:19:39;;;;;;;3.10;3.00;;;;;;;24.86;46.41;96620.56;5024526;28;20603;-69
2023/05/16 09:22:13;;;;;;;3.28;3.17;;;;;;;23.98;48.46;96601.78;5025313;28;20354;-69
2023/05/16 09:24:44;;;;;;;2.95;2.85;;;;;;;24.02;47.17;96556.38;5023413;28;20436;-70
2023/05/16 09:27:13;;;;;;;3.33;3.22;;;;;;;24.15;45.36;96593.81;5025195;28;20124;-61
2023/05/16 09:29:41;;;;;;;3.10;3.00;;;;;;;23.98;46.91;96624.44;5025330;28;20633;-61
2023/05/16 09:32:15;;;;;;;2.65;2.55;;;;;;;23.95;46.75;96591.38;5024798;28;20056;-64
2023/05/16 09:34:48;;;;;;;3.05;2.95;;;;;;;23.83;47.80;96592.31;5006840;28;20061;-69
2023/05/16 09:37:15;;;;;;;3.03;2.93;;;;;;;24.26;46.77;96566.63;5004913;28;20045;-62
2023/05/16 09:39:46;;;;;;;3.30;3.20;;;;;;;24.62;45.64;96549.59;4962227;28;20144;-68
2023/05/16 09:42:15;;;;;;;3.47;3.38;;;;;;;23.55;46.55;96489.63;5012627;28;20064;-61
2023/05/16 09:44:53;;;;;;;3.13;3.03;;;;;;;24.47;47.18;96564.88;5004216;28;20054;-65
2023/05/16 09:47:21;;;;;;;3.22;3.13;;;;;;;24.31;46.90;96560.28;5004890;28;20137;-62
2023/05/16 09:49:52;;;;;;;2.95;2.85;;;;;;;24.14;48.49;96587.34;5004748;28;20054;-61
2023/05/16 09:52:20;;;;;;;2.80;2.70;;;;;;;25.12;46.84;96599.88;5004357;28;20065;-69
2023/05/16 09:54:48;;;;;;;2.97;2.88;;;;;;;24.84;46.41;96606.88;5004290;28;20053;-70
2023/05/16 09:57:22;;;;;;;3.22;3.13;;;;;;;23.68;48.25;96605.47;5004353;28;20156;-69
2023/05/16 09:59:49;;;;;;;2.95;2.85;;;;;;;23.73;48.62;96590.72;5016635;28;20069;-71
2023/05/16 10:02:16;;;;;;;3.20;3.10;;;;;;;23.83;48.61;96555.53;5019066;28;20534;-71
2023/05/16 10:04:43;;;;;;;2.95;2.85;;;;;;;24.30;47.76;96564.41;5020854;28;20084;-58
2023/05/16 10:07:10;;;;;;;2.97;2.88;;;;;;;24.41;47.59;96578.88;5023365;28;20615;-67
2023/05/16 10:09:39;;;;;;;3.10;3.00;;;;;;;24.08;48.79;96583.56;5022157;28;20041;-59
2023/05/16 10:12:07;;;;;;;3.05;2.95;;;;;;;24.55;48.77;96583.88;5023552;28;20089;-66
2023/05/16 10:14:36;;;;;;;3.30;3.20;;;;;;;24.09;49.35;96584.38;5022146;28;20542;-61
2023/05/16 10:17:05;;;;;;;3.03;2.92;;;;;;;23.78;50.26;96581.63;5026686;28;20080;-61
2023/05/16 10:19:36;;;;;;;3.10;3.00;;;;;;;24.59;50.27;96575.22;5019118;28;20168;-68
2023/05/16 10:22:05;;;;;;;3.20;3.10;;;;;;;24.06;50.93;96562.69;5021527;28;20417;-59
2023/05/16 10:24:46;;;;;;;3.40;3.30;;;;;;;24.48;48.59;96564.41;5019682;28;20057;-58
2023/05/16 10:27:14;;;;;;;3.03;2.92;;;;;;;24.43;48.99;96559.38;5022766;28;20063;-62
2023/05/16 10:29:44;;;;;;;2.80;2.70;;;;;;;23.69;50.78;96517.34;5022174;28;20519;-68
2023/05/16 10:32:23;;;;;;;2.75;2.65;;;;;;;23.94;49.39;96544.53;5020746;28;20148;-59
2023/05/16 10:34:51;;;;;;;3.03;2.92;;;;;;;24.19;50.79;96544.28;5021659;28;20050;-61
2023/05/16 10:37:17;;;;;;;2.85;2.75;;;;;;;24.13;51.08;96515.03;5021812;28;20621;-60
2023/05/16 10:39:45;;;;;;;3.08;2.97;;;;;;;23.12;52.47;96376.03;5022525;28;20053;-63
2023/05/16 10:42:17;;;;;;;3.10;3.00;;;;;;;23.71;51.29;96429.94;5023440;28;20131;-59
2023/05/16 10:44:43;;;;;;;2.97;2.88;;;;;;;25.04;50.28;96513.59;5019700;28;20053;-60
2023/05/16 10:47:23;;;;;;;3.30;3.20;;;;;;;23.78;49.04;96267.63;5022070;28;20049;-62
2023/05/16 10:49:50;;;;;;;3.15;3.05;;;;;;;25.78;48.35;96532.59;5023001;28;20064;-62
2023/05/16 10:52:17;;;;;;;3.38;3.28;;;;;;;25.87;46.75;96477.84;5021775;28;20056;-70
2023/05/16 10:54:50;;;;;;;3.40;3.30;;;;;;;25.36;48.03;96516.94;5026371;28;20057;-68
2023/05/16 10:57:22;;;;;;;3.38;3.28;;;;;;;24.56;50.41;96528.81;5024633;28;20124;-61
2023/05/16 10:59:50;;;;;;;3.15;3.05;;;;;;;23.44;51.57;96398.06;5034888;28;20451;-61
2023/05/16 11:02:28;;;;;;;2.95;2.85;;;;;;;24.29;51.08;96519.56;5024864;28;20049;-61
2023/05/16 11:04:59;;;;;;;3.17;3.08;;;;;;;24.37;50.94;96431.00;5010972;28;20049;-70
2023/05/16 11:07:31;;;;;;;3.03;2.92;;;;;;;24.92;51.71;96502.47;5024101;28;20130;-59
2023/05/16 11:10:07;;;;;;;3.00;2.90;;;;;;;25.01;50.44;96432.34;5032830;28;20459;-60
2023/05/16 11:12:43;;;;;;;3.65;3.55;;;;;;;25.06;52.15;96499.72;5027675;28;20559;-66
2023/05/16 11:15:24;;;;;;;3.55;3.45;;;;;;;25.80;50.34;96503.75;5024546;28;20128;-60
2023/05/16 11:18:05;;;;;;;3.30;3.20;;;;;;;26.10;47.54;96497.69;5006882;28;20050;-66
2023/05/16 11:20:33;;;;;;;3.83;3.72;;;;;;;26.40;48.23;96492.84;5025500;28;20092;-60
2023/05/16 11:23:15;;;;;;;3.80;3.70;;;;;;;26.69;47.43;96493.69;5061692;28;20072;-62
2023/05/16 11:25:45;;;;;;;3.78;3.67;;;;;;;25.17;47.14;96244.84;5023180;28;20041;-61
2023/05/16 11:28:13;;;;;;;3.65;3.55;;;;;;;26.73;46.84;96464.28;5023711;28;20041;-65
2023/05/16 11:30:43;;;;;;;3.92;3.83;;;;;;;26.32;46.45;96417.84;5022826;28;20088;-70
2023/05/16 11:33:11;;;;;;;3.95;3.85;;;;;;;25.36;47.60;96386.47;5026663;28;20068;-64
2023/05/16 11:35:38;;;;;;;3.55;3.45;;;;;;;25.45;48.99;96486.47;5022760;28;20492;-68
2023/05/16 11:38:05;;;;;;;3.35;3.25;;;;;;;25.45;49.09;96485.72;5026341;28;20054;-60